Hauptseite
METAR-TAF:

METAR-TAF

Flughäfen :

Flughafen Ljubljana

Ljubljana, Slowenien

Breite: 46-13N, Länge: 014-29E, Höhe: 385 m

Beobachtung

Neuester Wetterbericht von vor 3 Stunden und 22 Minuten, um 22:30 UTC
Wind 5 kt aus West
Temperatur 19°C
Luftfeuchtigkeit 88%
Luftdruck 1019 hPa
Sichtweite 10 km oder mehr
Leicht bewölkt in der Höhe von 6000 ft
Aufgelockert bewölkt in der Höhe von 11000 ft

METAR: LJLJ 172230Z 27005KT 9999 FEW060 SCT110 19/17 Q1019 NOSIG

Zeit: 03:52 (01:52 UTC)

Prognose

Neuester Wetterbericht von vor 2 Stunden und 52 Minuten, um 23:00 UTC
Gültige Prognose vom 18 um 00 UTC bis 18 um 24 UTC
Wind 6 kt aus Ost/Südost
Sichtweite 10 km oder mehr
Leicht bewölkt in der Höhe von 6000 ft

TAF: LJLJ 172300Z 1800/1824 12006KT 9999 FEW060

Wetterbeobachtungen und Prognosen von mehr als 4000 Flughäfen (METAR und TAF Bericht).

Die verfügbaren Stationen werden durch gelbe und rote Markierungen auf der Karte dargestellt.

Führen Sie die Maus auf sie, um den Namen der Station zu sehen.

Darauf klicken, um die Beobachtung von Wetterbeobachtungen und Prognosen zu sehen.

Um die Karte zu ändern : klicken Sie auf den grünen Tasten mit einem schwarzen Kreuz Zum Vergrößern, auf den grünen Button mit einem Gedankenstrich zu verkleinern, oder auf die grünen Pfeile für benachbarte Karten.


METAR-TAF: